Ilona — ZCTE3 — position and weather

sailwx.info

Track history (hours):
 
Tides and Currents Weather Stations Pressure Air Temp Water Temp Dewpoint Dewpoint Depression Visibility Wind Speed Wind Dir Waves Ship Positions

Ilona

Last reported at 2014-Jul-22 14:07 UTC. Time now 2014-Jul-22 15:31 UTC.
Position N 43°45' E 007°29'.

Length 37 m.

Type: Pleasure craft. MMSI: 319864000.

Date/timePositionNaut miles runAvg speedWind from/ knotsBaromVisibWave heightAir tempDewpointWater temp
2014-Jul-22 14:07N 43°45' E 007°29'1 0.2
2014-Jul-22 10:25N 43°45' E 007°29'3 0.3
2014-Jul-21 23:14N 43°43' E 007°25'0 0.0
2014-Jul-21 22:08N 43°43' E 007°25'0 0.0
2014-Jul-21 21:14N 43°43' E 007°25'0 0.0
2014-Jul-20 19:20N 43°43' E 007°25'0 0.0
2014-Jul-20 18:32N 43°43' E 007°25'0 0.0
2014-Jul-20 17:32N 43°43' E 007°25'0 0.0
2014-Jul-20 15:32N 43°43' E 007°25'0 0.0
2014-Jul-20 14:32N 43°43' E 007°25'0 0.0
2014-Jul-20 13:33N 43°43' E 007°25'0 0.0
2014-Jul-20 06:25N 43°43' E 007°25'0 0.0
2014-Jul-20 05:31N 43°43' E 007°25'0 0.0
2014-Jul-20 04:31N 43°43' E 007°25'0 0.0
2014-Jul-20 03:31N 43°43' E 007°25'0 0.0
2014-Jul-20 02:16N 43°43' E 007°25'0 0.0
2014-Jul-20 01:28N 43°43' E 007°25'0 0.0
2014-Jul-20 00:19N 43°43' E 007°25'0 0.0
2014-Jul-19 23:31N 43°43' E 007°25'0 0.0
2014-Jul-19 22:31N 43°43' E 007°25'0 0.0
2014-Jul-19 20:16N 43°43' E 007°25'0 0.0
2014-Jul-19 19:28N 43°43' E 007°25'0 0.0
2014-Jul-19 18:28N 43°43' E 007°25'1 1.4
2014-Jul-19 17:31N 43°44' E 007°27'2 0.8
2014-Jul-19 14:31N 43°46' E 007°29'3 3.1
2014-Jul-19 13:28N 43°43' E 007°26'1212.7
2014-Jul-19 12:33N 43°39' E 007°11'0 0.0
2014-Jul-19 11:33N 43°39' E 007°11'4 3.6
2014-Jul-19 10:33N 43°40' E 007°16'8 5.4
2014-Jul-19 09:06N 43°43' E 007°25'0 0.0
2014-Jul-19 07:30N 43°43' E 007°25'0 0.0
2014-Jul-19 06:27N 43°43' E 007°25'0 0.0
2014-Jul-19 05:24N 43°43' E 007°25'0 0.0
2014-Jul-19 04:12N 43°43' E 007°25'0 0.0
2014-Jul-19 03:12N 43°43' E 007°25'0 0.0
2014-Jul-19 02:24N 43°43' E 007°25'0 0.0
2014-Jul-19 01:24N 43°43' E 007°25'0 0.0
2014-Jul-19 00:30N 43°43' E 007°25'0 0.0
2014-Jul-18 23:24N 43°43' E 007°25'0 0.0
2014-Jul-18 22:24N 43°43' E 007°25'0 0.0
2014-Jul-18 21:24N 43°43' E 007°25'0 0.0
2014-Jul-18 20:30N 43°43' E 007°25'0 0.0
2014-Jul-18 19:33N 43°43' E 007°25'0 0.0
2014-Jul-18 18:33N 43°43' E 007°25'0 0.0
2014-Jul-18 17:33N 43°43' E 007°25'4 2.7
2014-Jul-18 16:14N 43°45' E 007°29'0 0.0
2014-Jul-18 08:27N 43°45' E 007°29'4 4.0
2014-Jul-18 07:33N 43°43' E 007°25'0 0.0
2014-Jul-18 06:21N 43°43' E 007°25'0 0.0
2014-Jul-18 04:33N 43°43' E 007°25'0 0.0
2014-Jul-18 03:21N 43°43' E 007°25'0 0.0
2014-Jul-18 02:33N 43°43' E 007°25'0 0.0
2014-Jul-18 01:33N 43°43' E 007°25'0 0.0
2014-Jul-18 00:21N 43°43' E 007°25'0 0.0
2014-Jul-17 23:33N 43°43' E 007°25'0 0.0
2014-Jul-17 22:33N 43°43' E 007°25'0 0.0
2014-Jul-17 21:33N 43°43' E 007°25'0 0.0
2014-Jul-17 20:33N 43°43' E 007°25'0 0.0
2014-Jul-17 19:33N 43°43' E 007°25'0 0.0
2014-Jul-17 18:28N 43°43' E 007°25'1 1.4
2014-Jul-17 17:33N 43°44' E 007°27'2 2.4
2014-Jul-17 16:34N 43°45' E 007°29'0 0.0
2014-Jul-17 15:33N 43°45' E 007°29'0 0.0
2014-Jul-17 14:34N 43°45' E 007°29'0 0.0
2014-Jul-17 13:33N 43°45' E 007°29'0 0.0
2014-Jul-17 12:05N 43°45' E 007°29'0 0.0
2014-Jul-17 11:32N 43°45' E 007°29'0 0.0
2014-Jul-17 10:33N 43°45' E 007°29'4 3.5
2014-Jul-17 09:32N 43°43' E 007°25'0 0.0
2014-Jul-17 08:32N 43°43' E 007°25'0 0.0
2014-Jul-17 07:26N 43°43' E 007°25'0 0.0
2014-Jul-17 06:26N 43°43' E 007°25'0 0.0
2014-Jul-17 05:26N 43°43' E 007°25'0 0.0
2014-Jul-17 04:32N 43°43' E 007°25'0 0.0
2014-Jul-17 03:32N 43°43' E 007°25'0 0.0
2014-Jul-17 02:26N 43°43' E 007°25'0 0.0
2014-Jul-17 01:26N 43°43' E 007°25'0 0.0
2014-Jul-17 00:32N 43°43' E 007°25'0 0.0
2014-Jul-16 23:32N 43°43' E 007°25'0 0.0
2014-Jul-16 22:32N 43°43' E 007°25'0 0.0
2014-Jul-16 21:32N 43°43' E 007°25'0 0.0
2014-Jul-16 20:32N 43°43' E 007°25'0 0.0
2014-Jul-16 19:32N 43°43' E 007°25'0 0.0
2014-Jul-16 18:32N 43°43' E 007°25'0 0.0
2014-Jul-16 17:27N 43°43' E 007°25'1 0.2
2014-Jul-16 09:33N 43°44' E 007°27'1 1.4
2014-Jul-16 08:31N 43°43' E 007°25'0 0.0
2014-Jul-16 07:31N 43°43' E 007°25'0 0.0
2014-Jul-16 06:33N 43°43' E 007°25'0 0.0
2014-Jul-16 05:33N 43°43' E 007°25'0 0.0
2014-Jul-16 04:33N 43°43' E 007°25'0 0.0
2014-Jul-16 03:33N 43°43' E 007°25'0 0.0
2014-Jul-16 02:33N 43°43' E 007°25'0 0.0
2014-Jul-16 01:28N 43°43' E 007°25'0 0.0
2014-Jul-16 00:32N 43°43' E 007°25'0 0.0
2014-Jul-15 23:33N 43°43' E 007°25'0 0.0
2014-Jul-15 21:33N 43°43' E 007°25'0 0.0
2014-Jul-15 20:33N 43°43' E 007°25'0 0.0
2014-Jul-15 19:32N 43°43' E 007°25'0 0.0
2014-Jul-15 18:33N 43°43' E 007°25'0 0.0
2014-Jul-15 17:33N 43°43' E 007°25'0 0.0
2014-Jul-15 16:32N 43°43' E 007°25'0 0.1
2014-Jul-15 15:21N 43°43' E 007°25'4 0.7
2014-Jul-15 10:06N 43°46' E 007°29'3 5.3
2014-Jul-15 09:33N 43°44' E 007°26'1 0.3
2014-Jul-15 07:03N 43°43' E 007°25'0 0.0
2014-Jul-14 18:21N 43°43' E 007°25'0 0.0
2014-Jul-14 17:09N 43°43' E 007°25'0 0.0
2014-Jul-14 13:09N 43°43' E 007°25'0 0.0
2014-Jul-14 12:21N 43°43' E 007°25'0 0.0
2014-Jul-14 09:15N 43°43' E 007°25'0 0.0
2014-Jul-14 05:33N 43°43' E 007°25'0 0.0
2014-Jul-14 01:15N 43°43' E 007°25'0 0.0
2014-Jul-14 00:33N 43°43' E 007°25'0 0.0
2014-Jul-13 23:03N 43°43' E 007°25'0 0.0
2014-Jul-13 19:27N 43°43' E 007°25'0 0.0
2014-Jul-13 18:26N 43°43' E 007°25'4 0.5
2014-Jul-13 10:29N 43°45' E 007°29'4 3.7
2014-Jul-13 09:30N 43°43' E 007°25'0 0.0
2014-Jul-13 05:12N 43°43' E 007°25'0 0.0
2014-Jul-13 04:12N 43°43' E 007°25'0 0.0
2014-Jul-13 03:24N 43°43' E 007°25'0 0.0
2014-Jul-13 01:24N 43°43' E 007°25'0 0.0
2014-Jul-13 00:18N 43°43' E 007°25'0 0.0
2014-Jul-12 21:12N 43°43' E 007°25'0 0.0
2014-Jul-12 20:24N 43°43' E 007°25'0 0.0
2014-Jul-12 16:06N 43°43' E 007°25'  
Track history (hours):
 
Tides and Currents Weather Stations Pressure Air Temp Water Temp Dewpoint Dewpoint Depression Visibility Wind Speed Wind Dir Waves Ship Positions

Ilona

Last reported at 2014-Jul-22 14:07 UTC. Time now 2014-Jul-22 15:31 UTC.
Position N 43°45' E 007°29'.

Length 37 m.

Type: Pleasure craft. MMSI: 319864000.

Date/timePositionNaut miles runAvg speedWind from/ knotsBaromVisibWave heightAir tempDewpointWater temp
2014-Jul-22 14:07N 43°45' E 007°29'1 0.2
2014-Jul-22 10:25N 43°45' E 007°29'3 0.3
2014-Jul-21 23:14N 43°43' E 007°25'0 0.0
2014-Jul-21 22:08N 43°43' E 007°25'0 0.0
2014-Jul-21 21:14N 43°43' E 007°25'0 0.0
2014-Jul-20 19:20N 43°43' E 007°25'0 0.0
2014-Jul-20 18:32N 43°43' E 007°25'0 0.0
2014-Jul-20 17:32N 43°43' E 007°25'0 0.0
2014-Jul-20 15:32N 43°43' E 007°25'0 0.0
2014-Jul-20 14:32N 43°43' E 007°25'0 0.0
2014-Jul-20 13:33N 43°43' E 007°25'0 0.0
2014-Jul-20 06:25N 43°43' E 007°25'0 0.0
2014-Jul-20 05:31N 43°43' E 007°25'0 0.0
2014-Jul-20 04:31N 43°43' E 007°25'0 0.0
2014-Jul-20 03:31N 43°43' E 007°25'0 0.0
2014-Jul-20 02:16N 43°43' E 007°25'0 0.0
2014-Jul-20 01:28N 43°43' E 007°25'0 0.0
2014-Jul-20 00:19N 43°43' E 007°25'0 0.0
2014-Jul-19 23:31N 43°43' E 007°25'0 0.0
2014-Jul-19 22:31N 43°43' E 007°25'0 0.0
2014-Jul-19 20:16N 43°43' E 007°25'0 0.0
2014-Jul-19 19:28N 43°43' E 007°25'0 0.0
2014-Jul-19 18:28N 43°43' E 007°25'1 1.4
2014-Jul-19 17:31N 43°44' E 007°27'2 0.8
2014-Jul-19 14:31N 43°46' E 007°29'3 3.1
2014-Jul-19 13:28N 43°43' E 007°26'1212.7
2014-Jul-19 12:33N 43°39' E 007°11'0 0.0
2014-Jul-19 11:33N 43°39' E 007°11'4 3.6
2014-Jul-19 10:33N 43°40' E 007°16'8 5.4
2014-Jul-19 09:06N 43°43' E 007°25'0 0.0
2014-Jul-19 07:30N 43°43' E 007°25'0 0.0
2014-Jul-19 06:27N 43°43' E 007°25'0 0.0
2014-Jul-19 05:24N 43°43' E 007°25'0 0.0
2014-Jul-19 04:12N 43°43' E 007°25'0 0.0
2014-Jul-19 03:12N 43°43' E 007°25'0 0.0
2014-Jul-19 02:24N 43°43' E 007°25'0 0.0
2014-Jul-19 01:24N 43°43' E 007°25'0 0.0
2014-Jul-19 00:30N 43°43' E 007°25'0 0.0
2014-Jul-18 23:24N 43°43' E 007°25'0 0.0
2014-Jul-18 22:24N 43°43' E 007°25'0 0.0
2014-Jul-18 21:24N 43°43' E 007°25'0 0.0
2014-Jul-18 20:30N 43°43' E 007°25'0 0.0
2014-Jul-18 19:33N 43°43' E 007°25'0 0.0
2014-Jul-18 18:33N 43°43' E 007°25'0 0.0
2014-Jul-18 17:33N 43°43' E 007°25'4 2.7
2014-Jul-18 16:14N 43°45' E 007°29'0 0.0
2014-Jul-18 08:27N 43°45' E 007°29'4 4.0
2014-Jul-18 07:33N 43°43' E 007°25'0 0.0
2014-Jul-18 06:21N 43°43' E 007°25'0 0.0
2014-Jul-18 04:33N 43°43' E 007°25'0 0.0
2014-Jul-18 03:21N 43°43' E 007°25'0 0.0
2014-Jul-18 02:33N 43°43' E 007°25'0 0.0
2014-Jul-18 01:33N 43°43' E 007°25'0 0.0
2014-Jul-18 00:21N 43°43' E 007°25'0 0.0
2014-Jul-17 23:33N 43°43' E 007°25'0 0.0
2014-Jul-17 22:33N 43°43' E 007°25'0 0.0
2014-Jul-17 21:33N 43°43' E 007°25'0 0.0
2014-Jul-17 20:33N 43°43' E 007°25'0 0.0
2014-Jul-17 19:33N 43°43' E 007°25'0 0.0
2014-Jul-17 18:28N 43°43' E 007°25'1 1.4
2014-Jul-17 17:33N 43°44' E 007°27'2 2.4
2014-Jul-17 16:34N 43°45' E 007°29'0 0.0
2014-Jul-17 15:33N 43°45' E 007°29'0 0.0
2014-Jul-17 14:34N 43°45' E 007°29'0 0.0
2014-Jul-17 13:33N 43°45' E 007°29'0 0.0
2014-Jul-17 12:05N 43°45' E 007°29'0 0.0
2014-Jul-17 11:32N 43°45' E 007°29'0 0.0
2014-Jul-17 10:33N 43°45' E 007°29'4 3.5
2014-Jul-17 09:32N 43°43' E 007°25'0 0.0
2014-Jul-17 08:32N 43°43' E 007°25'0 0.0
2014-Jul-17 07:26N 43°43' E 007°25'0 0.0
2014-Jul-17 06:26N 43°43' E 007°25'0 0.0
2014-Jul-17 05:26N 43°43' E 007°25'0 0.0
2014-Jul-17 04:32N 43°43' E 007°25'0 0.0
2014-Jul-17 03:32N 43°43' E 007°25'0 0.0
2014-Jul-17 02:26N 43°43' E 007°25'0 0.0
2014-Jul-17 01:26N 43°43' E 007°25'0 0.0
2014-Jul-17 00:32N 43°43' E 007°25'0 0.0
2014-Jul-16 23:32N 43°43' E 007°25'0 0.0
2014-Jul-16 22:32N 43°43' E 007°25'0 0.0
2014-Jul-16 21:32N 43°43' E 007°25'0 0.0
2014-Jul-16 20:32N 43°43' E 007°25'0 0.0
2014-Jul-16 19:32N 43°43' E 007°25'0 0.0
2014-Jul-16 18:32N 43°43' E 007°25'0 0.0
2014-Jul-16 17:27N 43°43' E 007°25'1 0.2
2014-Jul-16 09:33N 43°44' E 007°27'1 1.4
2014-Jul-16 08:31N 43°43' E 007°25'0 0.0
2014-Jul-16 07:31N 43°43' E 007°25'0 0.0
2014-Jul-16 06:33N 43°43' E 007°25'0 0.0
2014-Jul-16 05:33N 43°43' E 007°25'0 0.0
2014-Jul-16 04:33N 43°43' E 007°25'0 0.0
2014-Jul-16 03:33N 43°43' E 007°25'0 0.0
2014-Jul-16 02:33N 43°43' E 007°25'0 0.0
2014-Jul-16 01:28N 43°43' E 007°25'0 0.0
2014-Jul-16 00:32N 43°43' E 007°25'0 0.0
2014-Jul-15 23:33N 43°43' E 007°25'0 0.0
2014-Jul-15 21:33N 43°43' E 007°25'0 0.0
2014-Jul-15 20:33N 43°43' E 007°25'0 0.0
2014-Jul-15 19:32N 43°43' E 007°25'0 0.0
2014-Jul-15 18:33N 43°43' E 007°25'0 0.0
2014-Jul-15 17:33N 43°43' E 007°25'0 0.0
2014-Jul-15 16:32N 43°43' E 007°25'0 0.1
2014-Jul-15 15:21N 43°43' E 007°25'4 0.7
2014-Jul-15 10:06N 43°46' E 007°29'3 5.3
2014-Jul-15 09:33N 43°44' E 007°26'1 0.3
2014-Jul-15 07:03N 43°43' E 007°25'0 0.0
2014-Jul-14 18:21N 43°43' E 007°25'0 0.0
2014-Jul-14 17:09N 43°43' E 007°25'0 0.0
2014-Jul-14 13:09N 43°43' E 007°25'0 0.0
2014-Jul-14 12:21N 43°43' E 007°25'0 0.0
2014-Jul-14 09:15N 43°43' E 007°25'0 0.0
2014-Jul-14 05:33N 43°43' E 007°25'0 0.0
2014-Jul-14 01:15N 43°43' E 007°25'0 0.0
2014-Jul-14 00:33N 43°43' E 007°25'0 0.0
2014-Jul-13 23:03N 43°43' E 007°25'0 0.0
2014-Jul-13 19:27N 43°43' E 007°25'0 0.0
2014-Jul-13 18:26N 43°43' E 007°25'4 0.5
2014-Jul-13 10:29N 43°45' E 007°29'4 3.7
2014-Jul-13 09:30N 43°43' E 007°25'0 0.0
2014-Jul-13 05:12N 43°43' E 007°25'0 0.0
2014-Jul-13 04:12N 43°43' E 007°25'0 0.0
2014-Jul-13 03:24N 43°43' E 007°25'0 0.0
2014-Jul-13 01:24N 43°43' E 007°25'0 0.0
2014-Jul-13 00:18N 43°43' E 007°25'0 0.0
2014-Jul-12 21:12N 43°43' E 007°25'0 0.0
2014-Jul-12 20:24N 43°43' E 007°25'0 0.0
2014-Jul-12 16:06N 43°43' E 007°25'  

Dump ship's entire track history